Time;durP1;ratioP1;P1;durP2;ratioP2;P2;SDS_P1;SDS_P2;PMS_P1;PMS_P2;Temp;Humidity;BMP_temperature;BMP_pressure;BME280_temperature;BME280_humidity;BME280_pressure;Samples;Min_cycle;Max_cycle;Signal;HPM_P1;HPM_P2
2021/06/23 00:02:43;;;;;;;12.25;4.35;;;;;;;13.13;91.56;101681.88;6265917;28;20130;-75
2021/06/23 00:05:46;;;;;;;21.90;4.30;;;;;;;13.12;89.11;101674.88;6250234;28;20057;-75
2021/06/23 00:08:47;;;;;;;21.70;4.82;;;;;;;13.09;91.62;101675.91;6250078;28;20429;-75
2021/06/23 00:11:52;;;;;;;10.43;3.80;;;;;;;13.13;91.63;101679.25;6250141;28;20045;-76
2021/06/23 00:14:53;;;;;;;12.23;3.75;;;;;;;13.15;91.28;101685.28;6250195;28;20176;-76
2021/06/23 00:17:54;;;;;;;14.18;4.25;;;;;;;13.12;91.49;101693.34;6250013;28;20050;-75
2021/06/23 00:20:57;;;;;;;15.68;4.10;;;;;;;13.03;88.82;101675.31;6250258;28;20053;-75
2021/06/23 00:23:59;;;;;;;8.20;3.20;;;;;;;13.02;88.60;101678.91;6249722;28;20056;-75
2021/06/23 00:27:01;;;;;;;13.68;3.67;;;;;;;12.94;91.16;101671.34;6250083;28;20049;-75
2021/06/23 00:30:03;;;;;;;14.05;3.72;;;;;;;12.98;91.71;101666.78;6249780;28;20432;-75
2021/06/23 00:33:06;;;;;;;12.27;3.90;;;;;;;13.03;88.66;101664.75;6251104;28;20493;-75
2021/06/23 00:36:09;;;;;;;13.57;3.72;;;;;;;12.97;89.01;101676.47;6249535;28;20136;-75
2021/06/23 00:39:11;;;;;;;14.38;3.65;;;;;;;13.00;89.29;101686.91;6249751;28;20501;-75
2021/06/23 00:42:12;;;;;;;10.93;3.58;;;;;;;12.98;88.17;101680.81;6270598;28;20052;-75
2021/06/23 00:45:15;;;;;;;12.50;3.28;;;;;;;12.93;88.60;101685.47;6274003;28;20053;-75
2021/06/23 00:48:22;;;;;;;12.57;3.10;;;;;;;12.92;87.82;101686.41;6260341;28;20060;-75
2021/06/23 00:51:26;;;;;;;15.02;3.20;;;;;;;12.84;87.69;101697.31;6249608;28;20136;-76
2021/06/23 00:54:28;;;;;;;17.35;3.70;;;;;;;12.91;86.51;101690.84;6249287;28;20049;-74
2021/06/23 00:57:31;;;;;;;19.75;3.60;;;;;;;12.81;90.81;101694.84;6249249;28;20049;-75
2021/06/23 01:00:35;;;;;;;15.63;3.55;;;;;;;12.80;87.85;101694.91;6249196;28;20076;-74
2021/06/23 01:03:37;;;;;;;16.73;3.50;;;;;;;12.69;90.57;101700.69;6249096;28;20041;-75
2021/06/23 01:06:40;;;;;;;12.35;3.38;;;;;;;12.77;90.33;101700.34;6249102;28;20053;-74
2021/06/23 01:09:41;;;;;;;19.98;3.58;;;;;;;12.76;88.54;101712.66;6249914;28;20404;-75
2021/06/23 01:13:08;;;;;;;11.80;4.15;;;;;;;12.68;90.83;101715.66;6249143;28;20049;-75
2021/06/23 01:16:11;;;;;;;11.30;3.72;;;;;;;12.72;93.29;101719.03;6248409;28;20195;-75
2021/06/23 01:19:13;;;;;;;12.38;4.22;;;;;;;12.72;94.04;101713.75;6248839;28;20071;-76
2021/06/23 01:22:17;;;;;;;12.73;3.33;;;;;;;12.74;93.82;101722.44;6248505;28;20050;-75
2021/06/23 01:25:18;;;;;;;20.45;3.72;;;;;;;12.77;92.39;101718.81;6248668;28;20049;-75
2021/06/23 01:28:20;;;;;;;12.10;3.30;;;;;;;12.82;92.17;101722.94;6248447;28;20045;-75
2021/06/23 01:31:22;;;;;;;15.40;4.07;;;;;;;12.89;91.83;101732.25;6248719;28;20052;-76
2021/06/23 01:34:23;;;;;;;10.95;4.05;;;;;;;12.97;91.50;101737.16;6249403;28;20049;-75
2021/06/23 01:37:26;;;;;;;12.60;3.95;;;;;;;13.02;92.38;101737.81;6248188;28;20049;-76
2021/06/23 01:40:27;;;;;;;15.30;4.68;;;;;;;13.05;92.33;101735.03;6248361;28;20056;-76
2021/06/23 01:43:28;;;;;;;15.38;4.35;;;;;;;13.04;93.68;101729.84;6247949;28;20497;-76
2021/06/23 01:46:30;;;;;;;18.15;4.82;;;;;;;13.05;93.11;101732.38;6247778;28;20053;-75
2021/06/23 01:49:31;;;;;;;18.38;4.78;;;;;;;13.06;91.48;101728.81;6247988;28;20057;-76
2021/06/23 01:52:37;;;;;;;13.27;4.20;;;;;;;13.03;90.81;101725.47;6248147;28;20052;-75
2021/06/23 01:55:38;;;;;;;17.00;4.13;;;;;;;13.05;90.01;101734.19;6247679;28;20094;-75
2021/06/23 01:58:41;;;;;;;15.15;4.25;;;;;;;13.05;90.33;101723.63;6247829;28;20064;-76
2021/06/23 02:01:52;;;;;;;12.07;4.10;;;;;;;13.03;90.37;101731.59;6247637;28;20140;-76
2021/06/23 02:05:00;;;;;;;15.35;4.20;;;;;;;13.02;90.37;101727.25;6248721;28;20049;-75
2021/06/23 02:08:11;;;;;;;10.30;3.40;;;;;;;13.04;90.81;101722.75;6258924;28;20052;-75
2021/06/23 02:11:31;;;;;;;11.95;4.25;;;;;;;12.88;91.15;101725.25;6264113;28;20049;-76
2021/06/23 02:14:41;;;;;;;15.27;4.68;;;;;;;12.85;90.45;101727.19;6271594;28;20045;-75
2021/06/23 02:17:43;;;;;;;;;;;;;;;12.83;90.76;101740.47;6272445;28;20182;-75
2021/06/23 02:20:45;;;;;;;18.00;4.00;;;;;;;12.89;89.34;101724.31;6272118;28;19924;-75
2021/06/23 02:23:48;;;;;;;11.50;4.18;;;;;;;12.90;89.12;101730.50;6271710;28;20041;-76
2021/06/23 02:26:49;;;;;;;13.45;3.63;;;;;;;12.87;89.75;101739.38;6271802;28;20053;-75
2021/06/23 02:29:51;;;;;;;21.15;4.57;;;;;;;12.69;89.04;101740.25;6272021;28;20049;-75
2021/06/23 02:32:55;;;;;;;12.88;4.40;;;;;;;12.75;90.27;101741.75;6271163;28;20044;-74
2021/06/23 02:35:56;;;;;;;10.40;3.67;;;;;;;12.85;88.79;101748.28;6271711;28;20049;-74
2021/06/23 02:38:59;;;;;;;17.40;4.80;;;;;;;12.77;90.38;101761.84;6271698;28;20048;-74
2021/06/23 02:42:01;;;;;;;16.63;5.13;;;;;;;12.82;91.17;101756.38;6268580;28;20056;-74
2021/06/23 02:45:03;;;;;;;11.52;3.22;;;;;;;12.92;90.55;101757.66;6270552;28;20055;-75
2021/06/23 02:48:05;;;;;;;14.27;4.40;;;;;;;12.88;90.17;101748.16;6271200;28;20049;-74
2021/06/23 02:51:10;;;;;;;15.20;4.20;;;;;;;12.86;92.47;101742.09;6271545;28;20048;-75
2021/06/23 02:54:13;;;;;;;30.75;4.78;;;;;;;12.92;93.10;101747.09;6271066;28;20052;-75
2021/06/23 02:57:15;;;;;;;11.05;3.60;;;;;;;12.99;92.95;101745.88;6271479;28;20060;-75
2021/06/23 03:00:17;;;;;;;14.70;3.85;;;;;;;12.99;91.55;101747.63;6271280;28;20412;-75
2021/06/23 03:03:19;;;;;;;11.48;3.35;;;;;;;13.04;90.86;101754.44;6269877;28;20064;-75
2021/06/23 03:06:20;;;;;;;8.55;3.38;;;;;;;12.97;90.64;101762.69;6270910;28;20045;-74
2021/06/23 03:09:23;;;;;;;9.93;3.40;;;;;;;12.97;90.98;101760.06;6271418;28;20045;-75
2021/06/23 03:12:24;;;;;;;14.48;4.38;;;;;;;13.00;92.12;101755.50;6271247;28;20515;-75
2021/06/23 03:15:25;;;;;;;12.98;3.45;;;;;;;13.01;92.50;101761.63;6271186;28;20051;-75
2021/06/23 03:18:29;;;;;;;16.35;4.05;;;;;;;12.94;92.25;101767.22;6271144;28;20060;-75
2021/06/23 03:21:30;;;;;;;13.38;4.65;;;;;;;12.95;92.17;101768.91;6271391;28;20504;-75
2021/06/23 03:24:33;;;;;;;17.45;3.97;;;;;;;12.95;90.73;101765.44;6271612;28;20180;-75
2021/06/23 03:27:35;;;;;;;18.52;4.00;;;;;;;12.74;91.96;101769.03;6256339;28;20408;-75
2021/06/23 03:30:36;;;;;;;18.05;4.47;;;;;;;12.72;93.08;101755.94;6261843;28;20447;-75
2021/06/23 03:33:38;;;;;;;16.80;4.40;;;;;;;12.95;90.12;101752.22;6263570;28;20481;-75
2021/06/23 03:36:39;;;;;;;16.60;3.88;;;;;;;12.94;89.62;101759.28;6254617;28;20056;-75
2021/06/23 03:39:43;;;;;;;14.68;3.35;;;;;;;12.76;89.32;101757.47;6251063;28;20057;-77
2021/06/23 03:42:45;;;;;;;13.85;4.55;;;;;;;12.81;89.72;101758.16;6251193;28;20041;-77
2021/06/23 03:45:47;;;;;;;14.93;3.30;;;;;;;12.60;90.70;101756.50;6250647;28;20052;-78
2021/06/23 03:48:48;;;;;;;20.10;3.60;;;;;;;12.72;90.43;101748.03;6250855;28;20057;-77
2021/06/23 03:51:50;;;;;;;11.25;3.30;;;;;;;12.62;90.27;101760.75;6250787;28;20420;-78
2021/06/23 03:54:53;;;;;;;16.95;3.80;;;;;;;12.50;89.70;101769.25;6250556;28;20048;-75
2021/06/23 03:57:56;;;;;;;9.10;3.22;;;;;;;12.49;92.12;101764.91;6250704;28;20509;-74
2021/06/23 04:00:58;;;;;;;17.48;3.03;;;;;;;12.54;91.98;101765.53;6251485;28;20049;-74
2021/06/23 04:03:59;;;;;;;12.32;3.72;;;;;;;12.58;92.34;101758.31;6250300;28;20071;-75
2021/06/23 04:07:00;;;;;;;11.48;3.55;;;;;;;12.56;92.27;101763.69;6250313;28;20045;-75
2021/06/23 04:10:04;;;;;;;15.60;3.85;;;;;;;12.52;92.18;101764.75;6250509;28;20412;-76
2021/06/23 04:13:05;;;;;;;14.55;3.20;;;;;;;12.62;92.08;101771.31;6250265;28;20057;-76
2021/06/23 04:16:07;;;;;;;16.95;4.05;;;;;;;12.73;91.04;101770.84;6250148;28;20493;-75
2021/06/23 04:19:08;;;;;;;17.13;3.30;;;;;;;12.68;91.88;101775.47;6250189;28;20531;-76
2021/06/23 04:22:09;;;;;;;9.05;3.10;;;;;;;12.74;90.95;101788.38;6250319;28;20049;-75
2021/06/23 04:25:14;;;;;;;13.07;3.65;;;;;;;12.80;92.34;101782.78;6249706;28;20045;-76
2021/06/23 04:28:15;;;;;;;9.10;3.22;;;;;;;13.06;90.75;101778.09;6249215;28;20060;-74
2021/06/23 04:31:16;;;;;;;12.77;2.63;;;;;;;13.08;88.26;101792.06;6250901;28;20054;-74
2021/06/23 04:34:18;;;;;;;8.65;2.97;;;;;;;12.90;88.25;101794.66;6264684;28;20667;-75
2021/06/23 04:37:19;;;;;;;13.60;2.75;;;;;;;12.94;88.27;101798.00;6274406;28;20463;-76
2021/06/23 04:40:22;;;;;;;15.07;2.83;;;;;;;13.01;86.70;101793.28;6274340;28;20041;-76
2021/06/23 04:43:23;;;;;;;9.70;2.78;;;;;;;12.86;89.45;101802.78;6274329;28;20048;-75
2021/06/23 04:46:25;;;;;;;10.55;2.65;;;;;;;12.94;89.49;101805.91;6273859;28;20060;-76
2021/06/23 04:49:26;;;;;;;12.32;3.20;;;;;;;12.96;88.13;101811.97;6274535;28;20045;-75
2021/06/23 04:52:27;;;;;;;13.40;2.97;;;;;;;12.96;89.48;101811.97;6274222;28;20068;-75
2021/06/23 04:55:30;;;;;;;13.55;2.75;;;;;;;13.00;89.44;101815.34;6273946;28;20049;-75
2021/06/23 04:58:32;;;;;;;14.60;3.13;;;;;;;13.06;87.51;101812.41;6273862;28;20060;-74
2021/06/23 05:01:33;;;;;;;5.57;2.65;;;;;;;13.09;88.28;101801.72;6272191;28;20424;-75
2021/06/23 05:04:36;;;;;;;8.77;2.60;;;;;;;13.09;87.42;101801.72;6273752;28;20052;-76
2021/06/23 05:07:37;;;;;;;8.10;2.83;;;;;;;13.05;88.98;101808.91;6273535;28;20064;-75
2021/06/23 05:10:40;;;;;;;12.80;2.95;;;;;;;13.15;89.29;101810.19;6273868;28;20060;-76
2021/06/23 05:13:41;;;;;;;13.55;2.70;;;;;;;13.23;88.79;101812.50;6273574;28;20049;-76
2021/06/23 05:16:46;;;;;;;12.88;3.15;;;;;;;13.32;88.28;101803.31;6273524;28;20056;-76
2021/06/23 05:19:48;;;;;;;9.45;2.78;;;;;;;13.41;88.37;101795.78;6272992;28;20059;-76
2021/06/23 05:22:50;;;;;;;8.63;2.88;;;;;;;13.45;88.57;101801.78;6271893;28;20123;-76
2021/06/23 05:25:53;;;;;;;11.50;2.53;;;;;;;13.43;87.77;101804.47;6273032;28;20049;-76
2021/06/23 05:28:54;;;;;;;12.05;2.85;;;;;;;13.46;88.08;101806.13;6272993;28;20057;-76
2021/06/23 05:31:56;;;;;;;13.88;2.97;;;;;;;13.51;88.77;101800.63;6273346;28;20405;-76
2021/06/23 05:34:57;;;;;;;19.35;3.75;;;;;;;13.73;86.64;101795.16;6272005;28;20041;-75
2021/06/23 05:37:58;;;;;;;22.98;3.20;;;;;;;13.55;87.81;101805.69;6272843;28;20060;-74
2021/06/23 05:41:01;;;;;;;11.60;2.30;;;;;;;13.64;87.07;101797.31;6272759;28;20606;-75
2021/06/23 05:44:02;;;;;;;9.52;2.65;;;;;;;13.64;87.56;101796.44;6272581;28;20052;-75
2021/06/23 05:47:04;;;;;;;17.27;3.10;;;;;;;13.69;87.83;101800.56;6272084;28;20049;-75
2021/06/23 05:50:07;;;;;;;13.38;4.18;;;;;;;13.58;90.83;101797.63;6272863;28;20049;-75
2021/06/23 05:53:08;;;;;;;23.00;4.82;;;;;;;13.62;90.98;101799.16;6272676;28;20045;-75
2021/06/23 05:56:13;;;;;;;12.93;2.67;;;;;;;13.62;91.61;101807.06;6272431;28;20055;-74
2021/06/23 05:59:15;;;;;;;10.25;3.10;;;;;;;13.65;90.20;101812.22;6270739;28;20419;-75
2021/06/23 06:02:16;;;;;;;14.75;3.60;;;;;;;13.77;90.07;101817.84;6272402;28;20071;-74
2021/06/23 06:05:18;;;;;;;13.20;3.58;;;;;;;13.59;91.06;101827.53;6271989;28;20412;-75
2021/06/23 06:08:19;;;;;;;18.63;3.97;;;;;;;13.62;91.68;101830.00;6272455;28;20115;-75
2021/06/23 06:11:22;;;;;;;7.82;3.08;;;;;;;13.59;93.45;101841.56;6272354;28;20412;-75
2021/06/23 06:14:23;;;;;;;21.38;3.90;;;;;;;13.72;93.61;101828.63;6271936;28;20055;-75
2021/06/23 06:17:25;;;;;;;15.00;3.45;;;;;;;13.75;91.56;101822.31;6272196;28;20049;-75
2021/06/23 06:20:26;;;;;;;15.55;4.47;;;;;;;13.74;92.05;101832.03;6271966;28;20053;-74
2021/06/23 06:23:28;;;;;;;15.50;3.92;;;;;;;13.77;90.53;101833.69;6272054;28;20045;-74
2021/06/23 06:26:31;;;;;;;11.95;3.75;;;;;;;13.65;91.12;101825.41;6271574;28;20535;-74
2021/06/23 06:29:33;;;;;;;10.27;3.05;;;;;;;13.75;91.95;101822.31;6260011;28;20057;-74
2021/06/23 06:32:34;;;;;;;14.73;3.22;;;;;;;13.80;89.50;101826.44;6246988;28;20056;-74
2021/06/23 06:35:36;;;;;;;23.77;4.10;;;;;;;13.69;90.34;101824.34;6247060;28;20045;-75
2021/06/23 06:38:37;;;;;;;12.38;3.40;;;;;;;13.71;90.89;101827.75;6246765;28;20505;-75
2021/06/23 06:41:40;;;;;;;13.25;4.05;;;;;;;13.82;91.07;101831.69;6247077;28;20045;-75
2021/06/23 06:44:41;;;;;;;18.75;3.72;;;;;;;13.92;89.82;101830.28;6246706;28;20507;-75
2021/06/23 06:47:43;;;;;;;12.50;3.25;;;;;;;14.06;88.97;101835.72;6246764;28;20049;-75
2021/06/23 06:50:44;;;;;;;13.80;2.97;;;;;;;14.08;89.18;101833.00;6246656;28;20413;-74
2021/06/23 06:53:45;;;;;;;13.50;3.20;;;;;;;14.21;88.52;101834.94;6246675;28;20042;-74
2021/06/23 06:56:48;;;;;;;22.25;5.65;;;;;;;14.23;88.90;101831.38;6246325;28;20076;-75
2021/06/23 06:59:49;;;;;;;14.00;2.80;;;;;;;14.17;88.00;101836.06;6247523;28;20045;-75
2021/06/23 07:02:53;;;;;;;9.57;2.70;;;;;;;14.17;89.03;101836.06;6246705;28;20051;-74
2021/06/23 07:05:54;;;;;;;10.65;3.05;;;;;;;14.27;88.03;101846.16;6245308;28;20136;-74
2021/06/23 07:08:56;;;;;;;12.52;3.63;;;;;;;14.37;87.12;101842.09;6244454;28;20053;-74
2021/06/23 07:11:58;;;;;;;12.30;3.20;;;;;;;14.26;88.37;101849.72;6246252;28;20049;-75
2021/06/23 07:15:00;;;;;;;11.13;2.63;;;;;;;14.36;86.13;101853.63;6246460;28;20049;-75
2021/06/23 07:18:01;;;;;;;14.70;2.95;;;;;;;14.33;86.14;101843.19;6246575;28;20053;-74
2021/06/23 07:21:03;;;;;;;12.20;3.35;;;;;;;14.24;85.92;101849.81;6246344;28;20049;-74
2021/06/23 07:24:05;;;;;;;12.57;2.25;;;;;;;14.38;83.47;101859.66;6246345;28;20053;-75
2021/06/23 07:27:08;;;;;;;13.93;2.83;;;;;;;14.33;83.10;101862.56;6246193;28;20056;-74
2021/06/23 07:30:10;;;;;;;10.45;2.72;;;;;;;14.43;82.29;101861.13;6257525;28;20044;-74
2021/06/23 07:33:12;;;;;;;14.27;3.33;;;;;;;14.52;83.29;101867.78;6258333;28;20053;-73
2021/06/23 07:36:33;;;;;;;15.93;2.67;;;;;;;14.79;84.70;101864.63;6248220;28;20053;-75
2021/06/23 07:39:36;;;;;;;14.52;2.22;;;;;;;14.87;80.22;101863.28;6270719;28;20075;-74
2021/06/23 07:42:39;;;;;;;13.60;2.72;;;;;;;15.01;78.69;101857.25;6270848;28;20053;-74
2021/06/23 07:45:44;;;;;;;19.23;2.83;;;;;;;14.95;81.14;101862.88;6260375;28;20042;-74
2021/06/23 07:48:48;;;;;;;11.77;3.08;;;;;;;14.94;82.69;101861.16;6246139;28;20095;-75
2021/06/23 07:51:57;;;;;;;12.77;3.83;;;;;;;15.19;79.77;101860.69;6245945;28;20057;-74
2021/06/23 08:02:10;;;;;;;9.52;2.28;;;;;;;15.28;75.96;101862.81;6246305;28;20493;-74
2021/06/23 08:08:42;;;;;;;11.93;2.60;;;;;;;15.37;78.56;101857.00;6271939;28;20052;-74
2021/06/23 08:11:46;;;;;;;11.10;2.67;;;;;;;15.43;77.41;101846.06;6275173;28;20135;-77
2021/06/23 08:14:49;;;;;;;15.00;3.55;;;;;;;15.72;76.05;101844.47;6273852;28;20041;-77
2021/06/23 08:17:51;;;;;;;11.40;2.60;;;;;;;15.52;76.66;101850.00;6274865;28;20060;-76
2021/06/23 08:20:52;;;;;;;14.02;3.00;;;;;;;15.58;76.80;101848.78;6274712;28;20045;-73
2021/06/23 08:23:54;;;;;;;9.00;2.67;;;;;;;15.43;78.47;101845.22;6273707;28;20397;-75
2021/06/23 08:26:56;;;;;;;10.60;2.72;;;;;;;15.46;78.97;101845.91;6272925;28;20048;-74
2021/06/23 08:29:59;;;;;;;13.20;2.90;;;;;;;15.70;79.57;101848.13;6263882;28;20053;-75
2021/06/23 08:33:01;;;;;;;13.98;2.35;;;;;;;15.82;77.32;101846.59;6271453;28;20045;-75
2021/06/23 08:36:03;;;;;;;8.85;2.10;;;;;;;15.95;77.13;101852.88;6273412;28;20052;-74
2021/06/23 08:39:05;;;;;;;7.13;1.98;;;;;;;16.14;73.61;101837.59;6273462;28;20045;-77
2021/06/23 08:42:08;;;;;;;10.65;2.25;;;;;;;16.28;73.46;101843.88;6274100;28;20052;-77
2021/06/23 08:45:13;;;;;;;13.57;2.38;;;;;;;16.29;76.17;101845.59;6270946;28;20045;-77
2021/06/23 08:48:14;;;;;;;10.48;2.55;;;;;;;16.33;73.78;101836.50;6271926;28;20053;-77
2021/06/23 08:51:16;;;;;;;13.60;2.60;;;;;;;16.43;73.89;101840.28;6273283;28;20488;-75
2021/06/23 08:54:17;;;;;;;10.57;2.20;;;;;;;16.38;74.38;101832.63;6273074;28;20067;-76
2021/06/23 08:57:19;;;;;;;11.98;2.42;;;;;;;16.47;73.65;101829.41;6273375;28;20049;-77
2021/06/23 09:00:24;;;;;;;7.97;2.63;;;;;;;16.61;73.59;101841.81;6271178;28;20428;-78
2021/06/23 09:03:25;;;;;;;7.28;2.30;;;;;;;16.59;73.04;101849.03;6273444;28;20052;-75
2021/06/23 09:06:41;;;;;;;10.48;2.63;;;;;;;16.40;76.37;101840.50;6272232;28;20705;-77
2021/06/23 09:09:42;;;;;;;11.93;2.50;;;;;;;16.43;78.49;101845.59;6272354;28;20155;-77
2021/06/23 09:13:04;;;;;;;14.88;3.55;;;;;;;16.34;73.22;101840.84;6272925;28;20049;-77
2021/06/23 09:16:06;;;;;;;12.18;2.78;;;;;;;16.34;75.46;101857.63;6272464;28;20475;-77
2021/06/23 09:19:29;;;;;;;9.57;2.30;;;;;;;16.37;74.37;101846.84;6272197;28;20052;-77
2021/06/23 09:22:36;;;;;;;9.85;2.80;;;;;;;16.56;73.60;101848.38;6273373;28;20044;-76
2021/06/23 09:25:39;;;;;;;11.43;3.08;;;;;;;16.69;72.85;101847.53;6272232;28;20413;-77
2021/06/23 09:28:41;;;;;;;7.10;2.97;;;;;;;16.63;74.22;101855.88;6272706;28;20057;-75
2021/06/23 09:31:57;;;;;;;15.60;3.53;;;;;;;16.60;74.63;101850.75;6270317;28;20064;-74
2021/06/23 09:34:58;;;;;;;14.45;3.20;;;;;;;16.79;73.65;101855.81;6271282;28;20078;-75
2021/06/23 09:37:59;;;;;;;12.63;3.80;;;;;;;16.77;72.83;101863.03;6252936;28;20529;-75
2021/06/23 09:41:01;;;;;;;8.48;3.72;;;;;;;16.76;71.42;101856.03;6247403;28;20060;-75
2021/06/23 09:44:05;;;;;;;8.75;2.90;;;;;;;16.48;73.28;101851.47;6247755;28;20041;-75
2021/06/23 09:47:08;;;;;;;9.43;2.40;;;;;;;16.54;74.21;101859.09;6247154;28;20498;-77
2021/06/23 09:50:12;;;;;;;8.80;2.90;;;;;;;16.58;76.16;101860.63;6246804;28;20504;-75
2021/06/23 09:53:13;;;;;;;8.43;2.42;;;;;;;16.64;73.48;101859.38;6248004;28;20060;-75
2021/06/23 09:56:27;;;;;;;9.88;2.90;;;;;;;16.93;70.29;101855.81;6246702;28;20061;-74
2021/06/23 09:59:34;;;;;;;21.80;4.05;;;;;;;16.92;72.02;101858.56;6247492;28;20045;-74
2021/06/23 10:02:37;;;;;;;10.85;2.63;;;;;;;16.90;70.94;101863.13;6247623;28;20144;-75
2021/06/23 10:05:38;;;;;;;9.35;2.67;;;;;;;16.89;71.64;101856.94;6245982;28;20160;-75
2021/06/23 10:08:40;;;;;;;11.85;2.55;;;;;;;16.91;72.19;101852.41;6247213;28;20049;-74
2021/06/23 10:11:42;;;;;;;12.05;2.92;;;;;;;16.97;72.03;101851.16;6246668;28;20053;-74
2021/06/23 10:14:46;;;;;;;12.25;2.95;;;;;;;16.86;73.21;101853.66;6263708;28;20060;-74
2021/06/23 10:17:49;;;;;;;8.65;2.90;;;;;;;16.92;72.14;101850.59;6270743;28;20138;-73
2021/06/23 10:20:51;;;;;;;12.15;2.50;;;;;;;16.90;72.46;101841.88;6271422;28;20048;-76
2021/06/23 10:23:54;;;;;;;8.05;2.63;;;;;;;17.11;73.33;101852.94;6271302;28;20060;-77
2021/06/23 10:26:57;;;;;;;16.20;3.50;;;;;;;17.23;73.57;101854.84;6257852;28;20052;-77
2021/06/23 10:30:00;;;;;;;10.95;2.92;;;;;;;17.20;73.50;101853.22;6249396;28;20046;-78
2021/06/23 10:33:04;;;;;;;10.50;3.40;;;;;;;17.37;71.50;101861.94;6248102;28;20049;-75
2021/06/23 10:36:06;;;;;;;11.98;3.70;;;;;;;17.42;70.90;101852.69;6249648;28;20045;-77
2021/06/23 10:39:09;;;;;;;13.35;4.43;;;;;;;17.57;70.59;101844.69;6271206;28;20056;-77
2021/06/23 10:42:12;;;;;;;17.25;4.00;;;;;;;17.49;73.43;101854.03;6271956;28;20130;-74
2021/06/23 10:45:14;;;;;;;9.73;3.17;;;;;;;17.56;70.80;101846.47;6270888;28;20045;-74
2021/06/23 10:48:17;;;;;;;10.55;3.00;;;;;;;17.54;69.47;101852.88;6271385;28;20053;-75
2021/06/23 10:51:24;;;;;;;11.10;2.97;;;;;;;17.68;68.84;101852.81;6257622;28;20052;-77
2021/06/23 10:54:36;;;;;;;15.63;2.88;;;;;;;17.76;71.82;101861.19;6246731;28;20111;-79
2021/06/23 10:57:43;;;;;;;8.27;2.70;;;;;;;17.75;69.93;101854.13;6246362;28;20134;-77
2021/06/23 11:00:47;;;;;;;8.52;2.83;;;;;;;17.76;71.51;101861.19;6296073;22;20080;-75
2021/06/23 11:04:07;;;;;;;6.25;2.78;;;;;;;17.92;68.12;101853.03;6294709;28;20146;-75
2021/06/23 11:07:35;;;;;;;9.52;3.38;;;;;;;17.94;70.26;101854.66;6295969;28;20055;-76
2021/06/23 11:10:40;;;;;;;12.25;3.17;;;;;;;17.96;69.57;101855.38;6279505;28;20053;-75
2021/06/23 11:13:42;;;;;;;7.85;3.28;;;;;;;18.46;66.00;101851.09;6270700;28;20041;-75
2021/06/23 11:16:43;;;;;;;14.32;3.10;;;;;;;18.39;67.96;101844.47;6270271;28;20053;-75
2021/06/23 11:19:46;;;;;;;7.78;2.63;;;;;;;18.71;65.39;101844.97;6270136;28;20060;-76
2021/06/23 11:22:48;;;;;;;8.00;2.88;;;;;;;18.91;65.28;101848.88;6260880;28;20057;-76
2021/06/23 11:25:49;;;;;;;8.10;3.10;;;;;;;18.79;64.47;101851.56;6245731;28;20061;-75
2021/06/23 11:28:52;;;;;;;9.38;3.47;;;;;;;18.64;64.74;101846.31;6246225;28;20046;-77
2021/06/23 11:31:59;;;;;;;8.38;3.05;;;;;;;18.76;66.58;101847.31;6248375;28;20416;-76
2021/06/23 11:35:01;;;;;;;6.95;3.42;;;;;;;18.75;68.13;101851.75;6270052;28;20159;-76
2021/06/23 11:38:03;;;;;;;5.80;2.60;;;;;;;18.78;65.54;101856.03;6271725;28;20060;-77
2021/06/23 11:41:06;;;;;;;17.77;3.42;;;;;;;18.93;67.62;101849.59;6269518;28;20051;-75
2021/06/23 11:44:08;;;;;;;10.32;3.10;;;;;;;19.34;62.66;101850.25;6273479;28;20049;-75
2021/06/23 11:47:10;;;;;;;7.05;2.80;;;;;;;19.20;65.79;101856.59;6274766;28;20049;-77
2021/06/23 11:50:13;;;;;;;5.95;2.75;;;;;;;18.99;66.34;101845.69;6274677;28;20049;-76
2021/06/23 11:53:17;;;;;;;10.13;2.70;;;;;;;19.33;61.27;101845.91;6275081;28;20052;-76
2021/06/23 11:56:18;;;;;;;6.82;3.45;;;;;;;19.37;62.71;101842.91;6274745;28;20060;-75
2021/06/23 11:59:20;;;;;;;7.10;3.20;;;;;;;19.68;60.64;101844.19;6274458;28;20060;-74
2021/06/23 12:02:22;;;;;;;6.95;3.03;;;;;;;19.63;62.67;101842.84;6274714;28;20535;-77
2021/06/23 12:05:25;;;;;;;10.40;3.05;;;;;;;20.19;61.22;101837.72;6274300;28;20053;-76
2021/06/23 12:08:26;;;;;;;5.15;2.65;;;;;;;20.12;59.46;101847.16;6274437;28;20527;-74
2021/06/23 12:11:27;;;;;;;8.05;2.75;;;;;;;19.84;62.37;101848.38;6274098;28;20136;-76
2021/06/23 12:14:29;;;;;;;9.48;3.25;;;;;;;19.80;64.36;101850.41;6274518;28;20496;-77
2021/06/23 12:17:30;;;;;;;8.80;3.03;;;;;;;19.74;60.69;101851.72;6273781;28;20045;-74
2021/06/23 12:20:35;;;;;;;8.30;2.92;;;;;;;19.33;65.13;101852.09;6273640;28;20056;-75
2021/06/23 12:23:37;;;;;;;8.20;3.35;;;;;;;19.34;62.03;101853.78;6271058;28;20045;-75
2021/06/23 12:26:38;;;;;;;8.02;3.05;;;;;;;18.87;65.69;101844.72;6272258;28;20087;-75
2021/06/23 12:29:40;;;;;;;9.75;3.00;;;;;;;18.98;68.43;101854.59;6272513;28;20051;-76
2021/06/23 12:32:41;;;;;;;5.38;3.05;;;;;;;19.14;65.74;101851.72;6272535;28;20041;-76
2021/06/23 12:35:45;;;;;;;10.52;3.38;;;;;;;19.17;68.19;101847.03;6271894;28;20064;-76
2021/06/23 12:38:46;;;;;;;5.38;2.45;;;;;;;19.70;67.75;101839.59;6272395;28;20052;-76
2021/06/23 12:41:48;;;;;;;7.78;2.83;;;;;;;20.12;61.58;101834.69;6270276;28;20051;-76
2021/06/23 12:44:49;;;;;;;6.93;2.78;;;;;;;19.73;65.98;101833.19;6277442;28;20389;-77
2021/06/23 12:47:50;;;;;;;6.30;2.90;;;;;;;19.92;64.28;101833.50;6273893;28;20049;-75
2021/06/23 12:50:53;;;;;;;7.18;2.72;;;;;;;21.08;61.52;101838.78;6293112;28;20055;-75
2021/06/23 12:53:54;;;;;;;9.45;3.00;;;;;;;21.70;59.76;101830.13;6298125;28;20056;-75
2021/06/23 12:56:56;;;;;;;5.78;2.58;;;;;;;21.24;59.30;101834.75;6275654;28;20036;-76
2021/06/23 12:59:58;;;;;;;6.20;2.40;;;;;;;20.64;60.83;101829.81;6274211;28;20075;-75
2021/06/23 13:03:00;;;;;;;8.20;3.00;;;;;;;20.07;61.11;101827.97;6273595;28;20057;-75
2021/06/23 13:06:04;;;;;;;8.00;3.72;;;;;;;19.85;61.82;101826.06;6275090;28;20133;-78
2021/06/23 13:09:06;;;;;;;7.55;3.90;;;;;;;19.89;62.87;101824.88;6276819;28;20056;-78
2021/06/23 13:12:08;;;;;;;4.68;2.97;;;;;;;20.41;68.08;101823.56;6274495;28;20076;-76
2021/06/23 13:15:12;;;;;;;6.32;3.63;;;;;;;20.73;60.38;101831.75;6272746;28;20053;-76
2021/06/23 13:18:14;;;;;;;12.38;4.38;;;;;;;20.66;61.14;101827.84;6272944;28;20052;-76
2021/06/23 13:21:17;;;;;;;9.20;3.60;;;;;;;20.64;61.58;101833.31;6272406;28;20049;-76
2021/06/23 13:24:18;;;;;;;7.50;3.42;;;;;;;20.34;62.22;101835.66;6273165;28;20060;-76
2021/06/23 13:27:19;;;;;;;10.38;3.40;;;;;;;20.00;64.16;101839.13;6272208;28;20064;-77
2021/06/23 13:30:21;;;;;;;12.98;3.28;;;;;;;19.84;62.94;101827.03;6272418;28;20056;-77
2021/06/23 13:33:23;;;;;;;9.45;4.15;;;;;;;19.63;61.69;101835.69;6272582;28;20045;-76
2021/06/23 13:36:25;;;;;;;7.88;3.60;;;;;;;19.42;64.90;101839.91;6271084;28;20060;-77
2021/06/23 13:39:27;;;;;;;7.20;3.08;;;;;;;19.49;63.22;101844.69;6275432;28;20052;-76
2021/06/23 13:42:30;;;;;;;6.85;3.13;;;;;;;19.29;64.55;101839.94;6297622;28;20064;-77
2021/06/23 13:45:31;;;;;;;9.60;3.78;;;;;;;19.18;65.44;101848.72;6296539;28;20175;-77
2021/06/23 13:48:32;;;;;;;9.25;3.25;;;;;;;19.20;66.04;101857.44;6296718;28;20411;-77
2021/06/23 13:51:35;;;;;;;7.65;3.15;;;;;;;19.20;65.44;101852.13;6297011;28;20049;-77
2021/06/23 13:54:37;;;;;;;8.05;3.83;;;;;;;19.05;66.71;101852.38;6297264;28;20060;-77
2021/06/23 13:57:40;;;;;;;7.32;3.30;;;;;;;19.21;66.04;101848.50;6297321;28;20693;-76
2021/06/23 14:00:43;;;;;;;18.35;4.18;;;;;;;19.30;64.50;101846.97;6297037;28;20510;-76
2021/06/23 14:03:44;;;;;;;14.27;4.10;;;;;;;18.99;68.69;101851.00;6296059;28;20045;-77
2021/06/23 14:06:47;;;;;;;10.68;3.53;;;;;;;19.05;67.36;101850.56;6273063;28;20052;-77
2021/06/23 14:09:48;;;;;;;14.88;3.70;;;;;;;19.20;67.63;101859.25;6271647;28;20053;-77
2021/06/23 14:12:50;;;;;;;8.88;3.22;;;;;;;19.35;66.23;101860.84;6272303;28;20045;-72
2021/06/23 14:15:51;;;;;;;12.93;4.25;;;;;;;19.34;64.26;101858.25;6272207;28;20045;-76